createdAt,value
2022-09-20T00:01:42.947Z,53.04
2022-09-20T00:04:49.196Z,53.10
2022-09-20T00:07:52.031Z,53.06
2022-09-20T00:11:01.583Z,52.92
2022-09-20T00:14:08.422Z,53.07
2022-09-20T00:17:11.536Z,52.94
2022-09-20T00:20:15.723Z,53.01
2022-09-20T00:23:19.596Z,53.03
2022-09-20T00:26:22.821Z,52.96
2022-09-20T00:29:25.961Z,53.09
2022-09-20T00:32:28.784Z,53.00
2022-09-20T00:35:33.084Z,53.11
2022-09-20T00:38:35.880Z,53.07
2022-09-20T00:41:38.944Z,53.04
2022-09-20T00:44:50.980Z,52.94
2022-09-20T00:47:58.574Z,53.02
2022-09-20T00:51:09.212Z,52.99
2022-09-20T00:54:19.521Z,53.05
2022-09-20T00:57:23.810Z,52.90
2022-09-20T01:00:27.576Z,52.96
2022-09-20T01:03:33.164Z,52.95
2022-09-20T01:06:37.637Z,53.03
2022-09-20T01:09:40.513Z,52.98
2022-09-20T01:12:46.024Z,53.08
2022-09-20T01:15:50.400Z,52.89
2022-09-20T01:18:54.166Z,52.87
2022-09-20T01:21:58.680Z,52.91
2022-09-20T01:25:08.334Z,52.90
2022-09-20T01:28:12.629Z,52.94
2022-09-20T01:31:21.788Z,52.86
2022-09-20T01:34:30.580Z,52.96
2022-09-20T01:37:44.846Z,52.91
2022-09-20T01:41:00.399Z,53.00
2022-09-20T01:44:11.398Z,52.96
2022-09-20T01:47:23.303Z,52.92
2022-09-20T01:50:34.454Z,52.95
2022-09-20T01:53:53.986Z,52.92
2022-09-20T01:57:27.554Z,53.05
2022-09-20T02:00:40.077Z,52.91
2022-09-20T02:04:31.669Z,52.87
2022-09-20T02:08:15.797Z,52.82
2022-09-20T02:11:20.735Z,52.89
2022-09-20T02:14:35.788Z,52.83
2022-09-20T02:17:49.918Z,52.92
2022-09-20T02:21:02.042Z,52.82
2022-09-20T02:24:17.548Z,52.76
2022-09-20T02:27:27.923Z,52.90
2022-09-20T02:30:39.005Z,52.80
2022-09-20T02:34:19.010Z,52.84
2022-09-20T02:37:41.591Z,52.94
2022-09-20T02:41:20.560Z,52.92
2022-09-20T02:44:56.870Z,52.95
2022-09-20T02:48:04.999Z,52.77
2022-09-20T02:51:19.170Z,52.82
2022-09-20T02:54:34.634Z,52.80
2022-09-20T02:57:45.893Z,52.80
2022-09-20T03:00:55.541Z,52.73
2022-09-20T03:04:09.115Z,52.93
2022-09-20T03:07:23.950Z,52.73
2022-09-20T03:10:34.868Z,52.83
2022-09-20T03:13:55.924Z,52.88
2022-09-20T03:17:08.093Z,52.80
2022-09-20T03:20:25.045Z,52.81
2022-09-20T03:23:51.090Z,52.79
2022-09-20T03:26:59.361Z,52.92
2022-09-20T03:30:25.320Z,52.81
2022-09-20T03:33:42.518Z,52.92
2022-09-20T03:37:06.578Z,52.76
2022-09-20T03:40:40.769Z,52.74
2022-09-20T03:44:01.193Z,52.79
2022-09-20T03:47:17.335Z,52.72
2022-09-20T03:50:51.964Z,52.75
2022-09-20T03:54:27.657Z,52.70
2022-09-20T03:57:45.757Z,52.86
2022-09-20T04:01:02.678Z,52.73
2022-09-20T04:04:14.997Z,52.79
2022-09-20T04:07:23.632Z,52.82
2022-09-20T04:10:36.947Z,52.87
2022-09-20T04:13:50.181Z,52.92
2022-09-20T04:17:02.112Z,52.72
2022-09-20T04:20:16.191Z,52.79
2022-09-20T04:23:34.642Z,52.66
2022-09-20T04:26:42.015Z,52.70
2022-09-20T04:29:53.098Z,52.86
2022-09-20T04:33:01.561Z,52.81
2022-09-20T04:36:30.892Z,52.70
2022-09-20T04:39:43.932Z,52.82
2022-09-20T04:43:52.302Z,52.83
2022-09-20T04:47:18.770Z,52.78
2022-09-20T04:50:49.339Z,52.87
2022-09-20T04:54:36.007Z,52.71
2022-09-20T04:58:09.682Z,52.79
2022-09-20T05:01:57.039Z,52.91
2022-09-20T05:05:35.847Z,53.33
2022-09-20T05:09:26.924Z,53.26
2022-09-20T05:13:01.052Z,53.22
2022-09-20T05:16:09.962Z,51.71
2022-09-20T05:19:27.510Z,50.40
2022-09-20T05:23:01.813Z,49.18
2022-09-20T05:26:11.349Z,48.85
2022-09-20T05:29:20.726Z,48.76
2022-09-20T05:32:30.248Z,49.06
2022-09-20T05:35:39.431Z,49.42
2022-09-20T05:38:50.023Z,49.63
2022-09-20T05:41:58.313Z,49.79
2022-09-20T05:45:18.066Z,49.86
2022-09-20T05:48:27.334Z,49.97
2022-09-20T05:51:49.248Z,49.97
2022-09-20T05:55:21.776Z,50.12
2022-09-20T05:58:41.239Z,50.22
2022-09-20T06:01:51.416Z,50.23
2022-09-20T06:05:03.557Z,50.42
2022-09-20T06:08:25.925Z,50.48
2022-09-20T06:11:47.362Z,50.54
2022-09-20T06:15:00.128Z,50.70
2022-09-20T06:18:17.702Z,50.64
2022-09-20T06:21:32.072Z,50.65
2022-09-20T06:24:40.320Z,50.81
2022-09-20T06:27:48.371Z,50.88
2022-09-20T06:30:52.884Z,50.87
2022-09-20T06:33:58.604Z,50.95
2022-09-20T06:37:44.759Z,50.90
2022-09-20T06:41:07.959Z,51.03
2022-09-20T06:44:12.259Z,51.03
2022-09-20T06:47:16.041Z,50.97
2022-09-20T06:50:19.815Z,51.21
2022-09-20T06:53:29.795Z,51.13
2022-09-20T06:56:36.668Z,51.17
2022-09-20T06:59:40.971Z,51.34
2022-09-20T07:02:44.410Z,51.41
2022-09-20T07:05:47.449Z,51.37
2022-09-20T07:08:50.387Z,51.32
2022-09-20T07:11:53.156Z,51.39
2022-09-20T07:14:57.333Z,51.30
2022-09-20T07:18:00.733Z,51.30
2022-09-20T07:21:05.201Z,51.45
2022-09-20T07:24:08.108Z,51.39
2022-09-20T07:27:12.609Z,51.52
2022-09-20T07:30:17.666Z,51.60
2022-09-20T07:33:21.624Z,51.60
2022-09-20T07:36:24.517Z,51.54
2022-09-20T07:39:27.896Z,51.60
2022-09-20T07:42:30.741Z,51.70
2022-09-20T07:45:39.104Z,51.74
2022-09-20T07:48:42.696Z,51.55
2022-09-20T07:51:45.646Z,51.70
2022-09-20T07:54:49.968Z,51.73
2022-09-20T07:57:54.292Z,51.71
2022-09-20T08:01:00.140Z,51.76
2022-09-20T08:04:03.607Z,51.67
2022-09-20T08:07:06.496Z,51.75
2022-09-20T08:10:10.248Z,51.77
2022-09-20T08:16:41.993Z,51.75
2022-09-20T08:19:44.938Z,51.87
2022-09-20T08:23:06.323Z,51.90
2022-09-20T08:26:13.155Z,52.11
2022-09-20T08:29:16.102Z,51.93
2022-09-20T08:32:20.268Z,51.95
2022-09-20T08:35:25.369Z,52.18
2022-09-20T08:41:57.450Z,52.18
2022-09-20T08:45:03.557Z,52.18
2022-09-20T08:48:14.401Z,52.39
2022-09-20T08:51:22.620Z,52.29
2022-09-20T08:54:32.216Z,52.36
2022-09-20T08:57:36.455Z,52.36
2022-09-20T09:00:40.858Z,52.51
2022-09-20T09:03:45.106Z,52.21
2022-09-20T09:06:49.102Z,52.51
2022-09-20T09:09:55.753Z,52.27
2022-09-20T09:13:00.054Z,52.36
2022-09-20T09:16:07.822Z,52.35
2022-09-20T09:19:33.817Z,52.41
2022-09-20T09:22:42.358Z,52.40
2022-09-20T09:25:45.224Z,52.47
2022-09-20T09:28:48.365Z,52.52
2022-09-20T09:31:54.425Z,52.55
2022-09-20T09:35:24.614Z,52.51
2022-09-20T09:38:29.856Z,52.55
2022-09-20T09:41:35.655Z,52.49
2022-09-20T09:44:38.457Z,52.48
2022-09-20T09:47:41.265Z,52.52
2022-09-20T09:50:45.761Z,52.48
2022-09-20T09:53:50.161Z,52.27
2022-09-20T09:57:06.038Z,52.28
2022-09-20T10:00:19.743Z,52.19
2022-09-20T10:03:49.847Z,52.28
2022-09-20T10:07:01.866Z,52.28
2022-09-20T10:10:18.017Z,52.29
2022-09-20T10:13:29.101Z,52.34
2022-09-20T10:16:45.652Z,52.51
2022-09-20T10:20:04.188Z,52.49
2022-09-20T10:23:44.993Z,52.52
2022-09-20T10:27:15.192Z,52.46
2022-09-20T10:30:21.878Z,52.40
2022-09-20T10:33:37.476Z,52.37
2022-09-20T10:36:49.134Z,52.23
2022-09-20T10:40:02.758Z,52.18
2022-09-20T10:43:14.990Z,52.21
2022-09-20T10:46:32.461Z,52.21
2022-09-20T10:49:43.603Z,52.16
2022-09-20T10:53:04.547Z,52.33
2022-09-20T10:56:25.030Z,52.20
2022-09-20T10:59:41.438Z,52.31
2022-09-20T11:02:54.941Z,52.30
2022-09-20T11:06:11.473Z,52.41
2022-09-20T11:09:19.410Z,52.21
2022-09-20T11:12:28.991Z,52.18
2022-09-20T11:15:37.939Z,52.33
2022-09-20T11:18:45.013Z,52.33
2022-09-20T11:21:53.357Z,52.34
2022-09-20T11:25:02.862Z,52.33
2022-09-20T11:28:12.462Z,52.40
2022-09-20T11:31:21.022Z,52.43
2022-09-20T11:34:29.779Z,52.43
2022-09-20T11:37:37.400Z,52.33
2022-09-20T11:40:46.947Z,52.41
2022-09-20T11:43:52.023Z,52.42
2022-09-20T11:46:59.883Z,52.36
2022-09-20T11:50:33.083Z,52.34
2022-09-20T11:53:50.318Z,52.39
2022-09-20T11:56:56.521Z,52.31
2022-09-20T12:00:04.157Z,52.42
2022-09-20T12:03:29.564Z,52.51
2022-09-20T12:06:35.311Z,52.52
2022-09-20T12:09:41.250Z,52.49
2022-09-20T12:12:47.128Z,52.64
2022-09-20T12:16:00.639Z,52.85
2022-09-20T12:19:07.939Z,52.76
2022-09-20T12:22:28.180Z,52.95
2022-09-20T12:25:39.854Z,52.93
2022-09-20T12:28:44.345Z,52.90
2022-09-20T12:31:50.807Z,52.99
2022-09-20T12:34:53.716Z,53.01
2022-09-20T12:37:56.690Z,53.00
2022-09-20T12:41:02.419Z,53.02
2022-09-20T12:44:23.040Z,52.98
2022-09-20T12:47:30.183Z,53.03
2022-09-20T12:51:04.811Z,52.95
2022-09-20T12:54:10.271Z,53.32
2022-09-20T12:57:28.201Z,53.35
2022-09-20T13:00:38.942Z,53.33
2022-09-20T13:03:46.891Z,53.34
2022-09-20T13:06:50.160Z,53.37
2022-09-20T13:09:53.107Z,53.35
2022-09-20T13:13:02.274Z,53.48
2022-09-20T13:16:07.480Z,53.52
2022-09-20T13:19:17.486Z,53.39
2022-09-20T13:22:25.028Z,53.36
2022-09-20T13:25:28.501Z,53.41
2022-09-20T13:28:36.004Z,53.43
2022-09-20T13:31:39.090Z,53.44
2022-09-20T13:34:43.432Z,53.51
2022-09-20T13:37:54.826Z,53.88
2022-09-20T13:41:07.240Z,53.90
2022-09-20T13:44:17.737Z,54.13
2022-09-20T13:47:26.015Z,54.05
2022-09-20T13:50:33.550Z,54.13
2022-09-20T13:53:43.501Z,54.39
2022-09-20T13:56:46.546Z,54.42
2022-09-20T13:59:50.120Z,54.34
2022-09-20T14:02:54.707Z,54.47
2022-09-20T14:06:01.863Z,54.31
2022-09-20T14:09:11.373Z,54.30
2022-09-20T14:12:15.060Z,54.25
2022-09-20T14:15:18.105Z,54.37
2022-09-20T14:18:23.225Z,54.25
2022-09-20T14:21:28.988Z,54.17
2022-09-20T14:24:35.363Z,54.28
2022-09-20T14:27:38.866Z,54.31
2022-09-20T14:30:41.657Z,54.29
2022-09-20T14:33:50.717Z,54.18
2022-09-20T14:37:06.655Z,54.22
2022-09-20T14:40:20.481Z,54.17
2022-09-20T14:43:31.416Z,54.04
2022-09-20T14:46:36.717Z,54.13
2022-09-20T14:49:42.517Z,54.02
2022-09-20T14:52:46.753Z,53.93
2022-09-20T14:56:11.433Z,53.79
2022-09-20T14:59:24.872Z,53.91
2022-09-20T15:02:28.093Z,53.91
2022-09-20T15:05:31.029Z,53.74
2022-09-20T15:08:36.668Z,53.84
2022-09-20T15:11:40.744Z,53.71
2022-09-20T15:14:43.865Z,53.80
2022-09-20T15:17:48.584Z,53.70
2022-09-20T15:20:51.937Z,53.73
2022-09-20T15:23:56.087Z,53.56
2022-09-20T15:26:58.987Z,53.65
2022-09-20T15:30:01.757Z,53.67
2022-09-20T15:33:04.748Z,53.55
2022-09-20T15:36:08.397Z,53.53
2022-09-20T15:39:13.049Z,53.69
2022-09-20T15:42:16.016Z,53.46
2022-09-20T15:45:19.659Z,53.55
2022-09-20T15:48:23.898Z,53.53
2022-09-20T15:51:27.014Z,53.56
2022-09-20T15:54:31.230Z,53.38
2022-09-20T15:57:34.318Z,53.45
2022-09-20T16:00:37.206Z,53.41
2022-09-20T16:03:40.075Z,53.32
2022-09-20T16:06:45.332Z,53.25
2022-09-20T16:09:49.500Z,53.23
2022-09-20T16:12:52.290Z,53.32
2022-09-20T16:15:56.408Z,53.30
2022-09-20T16:19:16.910Z,53.38
2022-09-20T16:22:20.756Z,53.27
2022-09-20T16:25:24.960Z,53.35
2022-09-20T16:28:28.207Z,53.33
2022-09-20T16:31:34.634Z,53.22
2022-09-20T16:34:38.135Z,53.34
2022-09-20T16:37:40.951Z,53.28
2022-09-20T16:40:45.151Z,53.18
2022-09-20T16:43:52.120Z,53.13
2022-09-20T16:46:54.934Z,53.32
2022-09-20T16:49:58.274Z,53.15
2022-09-20T16:53:01.035Z,53.25
2022-09-20T16:56:07.717Z,53.16
2022-09-20T16:59:10.801Z,53.17
2022-09-20T17:02:13.752Z,53.19
2022-09-20T17:05:16.951Z,53.28
2022-09-20T17:08:19.727Z,53.16
2022-09-20T17:11:27.118Z,53.12
2022-09-20T17:14:31.106Z,53.10
2022-09-20T17:17:34.055Z,53.17
2022-09-20T17:20:38.505Z,53.16
2022-09-20T17:23:42.344Z,53.15
2022-09-20T17:26:46.832Z,53.17
2022-09-20T17:29:49.635Z,53.22
2022-09-20T17:32:52.640Z,53.11
2022-09-20T17:35:55.396Z,53.17
2022-09-20T17:39:03.945Z,53.32
2022-09-20T17:42:09.010Z,53.13
2022-09-20T17:45:12.176Z,53.24
2022-09-20T17:48:16.011Z,53.16
2022-09-20T17:51:20.571Z,53.23
2022-09-20T17:54:24.754Z,53.16
2022-09-20T17:57:28.964Z,53.26
2022-09-20T18:00:31.846Z,53.47
2022-09-20T18:03:38.204Z,53.25
2022-09-20T18:06:43.112Z,53.15
2022-09-20T18:09:46.041Z,53.15
2022-09-20T18:12:50.281Z,53.16
2022-09-20T18:15:53.158Z,53.18
2022-09-20T18:18:56.243Z,53.04
2022-09-20T18:21:59.256Z,53.26
2022-09-20T18:25:02.099Z,53.33
2022-09-20T18:28:06.407Z,53.49
2022-09-20T18:31:09.332Z,53.56
2022-09-20T18:34:17.899Z,53.63
2022-09-20T18:37:20.834Z,53.64
2022-09-20T18:40:23.789Z,53.69
2022-09-20T18:43:30.033Z,53.88
2022-09-20T18:46:33.046Z,53.72
2022-09-20T18:49:36.158Z,53.76
2022-09-20T18:52:39.031Z,53.82
2022-09-20T18:55:42.589Z,53.83
2022-09-20T18:58:47.423Z,53.88
2022-09-20T19:02:32.850Z,53.86
2022-09-20T19:05:43.766Z,53.82
2022-09-20T19:08:53.709Z,53.94
2022-09-20T19:12:06.081Z,53.79
2022-09-20T19:15:40.075Z,53.93
2022-09-20T19:19:03.007Z,54.06
2022-09-20T19:22:18.176Z,53.99
2022-09-20T19:25:27.186Z,54.13
2022-09-20T19:28:30.513Z,54.07
2022-09-20T19:31:35.579Z,54.01
2022-09-20T19:34:44.566Z,54.09
2022-09-20T19:38:03.977Z,54.14
2022-09-20T19:41:21.168Z,54.09
2022-09-20T19:44:34.532Z,54.06
2022-09-20T19:47:50.962Z,54.04
2022-09-20T19:50:54.790Z,54.04
2022-09-20T19:53:57.945Z,54.00
2022-09-20T19:57:02.866Z,53.99
2022-09-20T20:00:09.514Z,53.95
2022-09-20T20:03:15.243Z,53.94
2022-09-20T20:06:26.496Z,53.95
2022-09-20T20:09:39.716Z,53.87
2022-09-20T20:12:50.937Z,53.76
2022-09-20T20:16:01.939Z,53.74
2022-09-20T20:19:17.532Z,53.67
2022-09-20T20:22:33.471Z,53.69
2022-09-20T20:25:45.238Z,53.74
2022-09-20T20:28:48.517Z,53.63
2022-09-20T20:31:51.357Z,53.67
2022-09-20T20:34:55.508Z,53.71
2022-09-20T20:37:58.786Z,53.66
2022-09-20T20:41:04.687Z,53.73
2022-09-20T20:44:07.909Z,53.53
2022-09-20T20:47:11.239Z,53.41
2022-09-20T20:50:15.626Z,53.19
2022-09-20T20:53:18.721Z,53.04
2022-09-20T20:56:23.373Z,53.00
2022-09-20T20:59:26.211Z,53.01
2022-09-20T21:02:29.019Z,53.02
2022-09-20T21:05:33.865Z,53.10
2022-09-20T21:08:38.320Z,52.99
2022-09-20T21:11:44.057Z,53.09
2022-09-20T21:14:46.884Z,53.04
2022-09-20T21:17:52.357Z,53.16
2022-09-20T21:20:56.488Z,53.03
2022-09-20T21:24:01.171Z,53.03
2022-09-20T21:27:05.058Z,53.00
2022-09-20T21:30:10.002Z,52.97
2022-09-20T21:33:12.784Z,53.02
2022-09-20T21:36:19.058Z,53.14
2022-09-20T21:39:21.875Z,53.02
2022-09-20T21:42:27.205Z,53.03
2022-09-20T21:45:29.979Z,53.02
2022-09-20T21:48:33.645Z,53.09
2022-09-20T21:51:39.164Z,53.12
2022-09-20T21:54:42.297Z,53.05
2022-09-20T21:57:45.069Z,53.13
2022-09-20T22:00:57.392Z,53.04
2022-09-20T22:04:00.899Z,52.99
2022-09-20T22:07:05.214Z,53.05
2022-09-20T22:10:08.866Z,53.12
2022-09-20T22:13:11.661Z,53.01
2022-09-20T22:16:16.599Z,53.02
2022-09-20T22:19:20.249Z,53.03
2022-09-20T22:22:24.510Z,53.00
2022-09-20T22:25:27.269Z,53.03
2022-09-20T22:28:30.114Z,53.04
2022-09-20T22:31:34.410Z,52.89
2022-09-20T22:34:38.460Z,53.03
2022-09-20T22:37:42.835Z,53.10
2022-09-20T22:40:55.921Z,52.97
2022-09-20T22:43:58.947Z,53.03
2022-09-20T22:47:01.848Z,53.07
2022-09-20T22:50:05.547Z,53.07
2022-09-20T22:53:09.726Z,53.02
2022-09-20T22:56:15.179Z,53.07
2022-09-20T22:59:17.944Z,52.99
2022-09-20T23:02:20.751Z,53.06
2022-09-20T23:05:23.596Z,53.00
2022-09-20T23:08:27.713Z,53.00
2022-09-20T23:11:30.988Z,53.05
2022-09-20T23:14:33.791Z,53.07
2022-09-20T23:17:36.710Z,53.09
2022-09-20T23:20:39.477Z,53.14
2022-09-20T23:23:44.214Z,52.98
2022-09-20T23:26:47.332Z,53.08
2022-09-20T23:29:50.142Z,53.02
2022-09-20T23:32:54.737Z,53.03
2022-09-20T23:35:58.120Z,52.96
2022-09-20T23:39:02.288Z,53.10
2022-09-20T23:42:05.546Z,52.99
2022-09-20T23:45:10.060Z,53.07
2022-09-20T23:48:12.993Z,53.06
2022-09-20T23:51:18.682Z,53.06
2022-09-20T23:54:22.808Z,53.09
2022-09-20T23:57:25.611Z,53.01
